Time;durP1;ratioP1;P1;durP2;ratioP2;P2;SDS_P1;SDS_P2;PMS_P1;PMS_P2;Temp;Humidity;BMP_temperature;BMP_pressure;BME280_temperature;BME280_humidity;BME280_pressure;Samples;Min_cycle;Max_cycle;Signal;HPM_P1;HPM_P2
2021/12/26 00:00:45;;;;;;;0.00;0.00;;;2.70;60.40;;;;;;4999436;28;20041;-71
2021/12/26 00:03:11;;;;;;;0.00;0.00;;;2.60;60.30;;;;;;5014053;28;20110;-72
2021/12/26 00:05:37;;;;;;;0.00;0.00;;;2.60;60.30;;;;;;4999287;28;20065;-72
2021/12/26 00:08:03;;;;;;;0.00;0.00;;;2.60;60.30;;;;;;4994100;28;20026;-72
2021/12/26 00:10:29;;;;;;;0.00;0.00;;;2.60;60.20;;;;;;4994040;28;20032;-72
2021/12/26 00:12:57;;;;;;;0.00;0.00;;;2.60;60.20;;;;;;4985129;28;20057;-72
2021/12/26 00:15:24;;;;;;;0.00;0.00;;;2.60;60.20;;;;;;4998689;28;20034;-72
2021/12/26 00:17:50;;;;;;;0.00;0.00;;;2.50;60.00;;;;;;5013516;28;20426;-71
2021/12/26 00:20:16;;;;;;;0.00;0.00;;;2.50;59.90;;;;;;5013519;28;20065;-72
2021/12/26 00:22:43;;;;;;;0.00;0.00;;;2.50;59.90;;;;;;5009803;28;20031;-72
2021/12/26 00:25:10;;;;;;;0.00;0.00;;;2.50;59.90;;;;;;4994427;28;20537;-73
2021/12/26 00:27:36;;;;;;;0.00;0.00;;;2.50;59.80;;;;;;4993786;28;20033;-72
2021/12/26 00:30:07;;;;;;;0.00;0.00;;;2.50;59.80;;;;;;4992781;28;20030;-72
2021/12/26 00:32:32;;;;;;;0.00;0.00;;;2.50;59.60;;;;;;4993535;28;20031;-72
2021/12/26 00:34:58;;;;;;;0.00;0.00;;;2.50;59.70;;;;;;5000933;28;20446;-72
2021/12/26 00:37:24;;;;;;;0.10;0.10;;;2.40;59.70;;;;;;5013328;28;20034;-72
2021/12/26 00:39:49;;;;;;;0.00;0.00;;;2.50;60.40;;;;;;5013398;28;20497;-72
2021/12/26 00:42:15;;;;;;;0.00;0.00;;;2.50;59.80;;;;;;5012047;28;20030;-72
2021/12/26 00:44:41;;;;;;;0.00;0.00;;;2.40;59.60;;;;;;5008285;28;20038;-73
2021/12/26 00:47:07;;;;;;;0.00;0.00;;;2.40;59.60;;;;;;4993568;28;20037;-72
2021/12/26 00:49:33;;;;;;;0.00;0.00;;;2.40;59.60;;;;;;4993804;28;20374;-72
2021/12/26 00:51:59;;;;;;;0.00;0.00;;;2.40;59.60;;;;;;4993517;28;20022;-72
2021/12/26 00:54:24;;;;;;;0.00;0.00;;;2.40;59.70;;;;;;4995203;28;20035;-72
2021/12/26 00:56:50;;;;;;;0.00;0.00;;;2.40;59.60;;;;;;5013180;28;20486;-72
2021/12/26 00:59:16;;;;;;;0.00;0.00;;;2.40;59.60;;;;;;5013227;28;20026;-72
2021/12/26 01:01:42;;;;;;;0.00;0.00;;;2.40;59.50;;;;;;5005929;28;20438;-72
2021/12/26 01:04:08;;;;;;;0.00;0.00;;;2.40;59.40;;;;;;4990170;28;20537;-72
2021/12/26 01:06:34;;;;;;;0.00;0.00;;;2.40;59.30;;;;;;4993585;28;20061;-72
2021/12/26 01:09:00;;;;;;;0.00;0.00;;;2.40;59.10;;;;;;4993507;28;20110;-73
2021/12/26 01:11:41;;;;;;;0.00;0.00;;;2.40;59.00;;;;;;4993370;28;20386;-73
2021/12/26 01:14:11;;;;;;;0.00;0.00;;;2.30;58.90;;;;;;4994183;28;20034;-72
2021/12/26 01:16:38;;;;;;;0.00;0.00;;;2.30;59.00;;;;;;4993394;28;20038;-73
2021/12/26 01:19:13;;;;;;;0.00;0.00;;;2.30;59.00;;;;;;4993195;28;20036;-73
2021/12/26 01:21:39;;;;;;;0.00;0.00;;;2.30;59.00;;;;;;4992944;28;20363;-72
2021/12/26 01:24:09;;;;;;;0.00;0.00;;;2.20;58.80;;;;;;5005262;28;20045;-73
2021/12/26 01:26:35;;;;;;;0.00;0.00;;;2.20;58.60;;;;;;4995006;28;20064;-73
2021/12/26 01:29:02;;;;;;;0.00;0.00;;;2.10;58.40;;;;;;5012505;28;20066;-72
2021/12/26 01:31:28;;;;;;;0.00;0.00;;;2.00;58.60;;;;;;5012781;28;20022;-73
2021/12/26 01:33:58;;;;;;;0.00;0.00;;;2.00;58.70;;;;;;5002085;28;20398;-72
2021/12/26 01:36:26;;;;;;;0.00;0.00;;;1.90;58.80;;;;;;4993175;28;20481;-72
2021/12/26 01:38:53;;;;;;;0.00;0.00;;;1.90;58.90;;;;;;4994354;28;20045;-72
2021/12/26 01:41:19;;;;;;;0.00;0.00;;;1.90;58.90;;;;;;4993978;28;20042;-72
2021/12/26 01:43:47;;;;;;;0.00;0.00;;;1.90;58.90;;;;;;5004984;28;20132;-72
2021/12/26 01:46:14;;;;;;;0.00;0.00;;;1.90;58.90;;;;;;5016332;28;20435;-71
2021/12/26 01:48:40;;;;;;;0.00;0.00;;;1.90;58.80;;;;;;5016197;28;20029;-71
2021/12/26 01:51:06;;;;;;;0.00;0.00;;;1.90;58.80;;;;;;5015998;28;20022;-71
2021/12/26 01:53:38;;;;;;;0.00;0.00;;;1.90;59.30;;;;;;5009307;28;20027;-71
2021/12/26 01:56:10;;;;;;;0.00;0.00;;;1.80;58.60;;;;;;4996495;28;20073;-72
2021/12/26 01:58:37;;;;;;;0.00;0.00;;;1.80;58.70;;;;;;4996443;28;20460;-71
2021/12/26 02:01:10;;;;;;;0.00;0.00;;;1.70;58.70;;;;;;4996151;28;20114;-72
2021/12/26 02:03:36;;;;;;;0.00;0.00;;;1.70;58.60;;;;;;4982074;28;20030;-72
2021/12/26 02:06:04;;;;;;;0.00;0.00;;;1.60;58.60;;;;;;4996650;28;20037;-72
2021/12/26 02:08:30;;;;;;;0.00;0.00;;;1.60;58.60;;;;;;4996284;28;20070;-72
2021/12/26 02:10:59;;;;;;;0.00;0.00;;;1.60;58.80;;;;;;4996466;28;20438;-72
2021/12/26 02:13:25;;;;;;;0.00;0.00;;;1.50;58.80;;;;;;5015136;28;20026;-72
2021/12/26 02:15:52;;;;;;;0.00;0.00;;;1.50;58.70;;;;;;5015702;28;20052;-72
2021/12/26 02:18:17;;;;;;;0.00;0.00;;;1.40;58.80;;;;;;5016139;28;20557;-71
2021/12/26 02:23:16;;;;;;;0.00;0.00;;;1.40;59.10;;;;;;4998345;28;20478;-72
2021/12/26 02:28:12;;;;;;;0.00;0.00;;;1.40;59.30;;;;;;4976552;28;20603;-72
2021/12/26 02:30:38;;;;;;;0.00;0.00;;;1.40;59.20;;;;;;4976465;28;20033;-72
2021/12/26 02:33:07;;;;;;;0.00;0.00;;;1.50;59.30;;;;;;4991160;28;20409;-72
2021/12/26 02:35:34;;;;;;;0.00;0.00;;;1.50;59.20;;;;;;4977960;28;20043;-72
2021/12/26 02:37:59;;;;;;;0.00;0.00;;;1.50;59.30;;;;;;4976309;28;20039;-72
2021/12/26 02:40:25;;;;;;;0.00;0.00;;;1.50;59.70;;;;;;4976285;28;20486;-72
2021/12/26 02:42:52;;;;;;;0.00;0.00;;;1.50;59.10;;;;;;5000194;28;20034;-72
2021/12/26 02:45:18;;;;;;;0.00;0.00;;;1.50;59.20;;;;;;5014991;28;20030;-72
2021/12/26 02:47:47;;;;;;;0.00;0.00;;;1.50;59.00;;;;;;5014863;28;20034;-72
2021/12/26 02:50:16;;;;;;;0.00;0.00;;;1.50;59.10;;;;;;5015086;28;20033;-72
2021/12/26 02:52:43;;;;;;;0.00;0.00;;;1.50;59.10;;;;;;5003162;28;20033;-72
2021/12/26 02:55:10;;;;;;;0.00;0.00;;;1.60;59.10;;;;;;4995604;28;20026;-72
2021/12/26 02:57:36;;;;;;;0.00;0.00;;;1.50;59.00;;;;;;4995791;28;20042;-72
2021/12/26 03:00:15;;;;;;;0.00;0.00;;;1.60;59.00;;;;;;4995398;28;20466;-72
2021/12/26 03:02:42;;;;;;;0.00;0.00;;;1.60;58.90;;;;;;5004832;28;20022;-72
2021/12/26 03:05:08;;;;;;;0.00;0.00;;;1.60;58.90;;;;;;5014910;28;20034;-71
2021/12/26 03:07:34;;;;;;;0.00;0.00;;;1.60;58.90;;;;;;5014477;28;20393;-71
2021/12/26 03:10:00;;;;;;;0.00;0.00;;;1.60;58.90;;;;;;5006604;28;20030;-73
2021/12/26 03:12:28;;;;;;;0.00;0.00;;;1.60;58.90;;;;;;4995418;28;20034;-71
2021/12/26 03:14:54;;;;;;;0.00;0.00;;;1.60;58.80;;;;;;4995056;28;20026;-71
2021/12/26 03:17:20;;;;;;;0.00;0.00;;;1.60;58.80;;;;;;4994803;28;20386;-72
2021/12/26 03:19:46;;;;;;;0.00;0.00;;;1.60;58.80;;;;;;4999442;28;20034;-71
2021/12/26 03:22:14;;;;;;;0.00;0.00;;;1.60;58.90;;;;;;5014147;28;20026;-71
2021/12/26 03:24:42;;;;;;;0.00;0.00;;;1.50;58.80;;;;;;5014803;28;20074;-72
2021/12/26 03:27:07;;;;;;;0.00;0.00;;;1.50;58.80;;;;;;5014472;28;20112;-71
2021/12/26 03:29:34;;;;;;;0.00;0.00;;;1.40;58.80;;;;;;5011886;28;20042;-72
2021/12/26 03:31:59;;;;;;;0.00;0.00;;;1.40;58.80;;;;;;4994808;28;20031;-71
2021/12/26 03:34:25;;;;;;;0.00;0.00;;;1.30;58.90;;;;;;4994350;28;20030;-71
2021/12/26 03:36:53;;;;;;;0.00;0.00;;;1.30;59.00;;;;;;5003214;28;20046;-72
2021/12/26 03:39:19;;;;;;;0.00;0.00;;;1.30;59.00;;;;;;5014516;28;20478;-70
2021/12/26 03:41:46;;;;;;;0.00;0.00;;;1.20;58.90;;;;;;5014126;28;20418;-72
2021/12/26 03:44:13;;;;;;;0.00;0.00;;;1.20;59.00;;;;;;5007204;28;20092;-71
2021/12/26 03:46:39;;;;;;;0.00;0.00;;;1.10;59.70;;;;;;4994394;28;20470;-72
2021/12/26 03:49:06;;;;;;;0.00;0.00;;;1.10;59.10;;;;;;4994120;28;20418;-72
2021/12/26 03:51:33;;;;;;;0.00;0.00;;;1.10;59.10;;;;;;4994105;28;20065;-71
2021/12/26 03:54:00;;;;;;;0.00;0.00;;;1.00;59.10;;;;;;5012528;28;20037;-71
2021/12/26 03:56:27;;;;;;;0.00;0.00;;;0.90;59.10;;;;;;5013917;28;20034;-72
2021/12/26 03:58:53;;;;;;;0.00;0.00;;;0.80;59.20;;;;;;5013892;28;20481;-72
2021/12/26 04:01:19;;;;;;;0.00;0.00;;;0.80;59.40;;;;;;5012314;28;20105;-72
2021/12/26 04:03:44;;;;;;;0.22;0.10;;;0.70;59.30;;;;;;5013090;28;20031;-72
2021/12/26 04:06:10;;;;;;;0.00;0.00;;;0.70;59.50;;;;;;5014127;28;20108;-72
2021/12/26 04:08:36;;;;;;;0.00;0.00;;;0.60;59.40;;;;;;5011945;28;20044;-72
2021/12/26 04:11:02;;;;;;;0.05;0.00;;;0.50;59.50;;;;;;4993918;28;20109;-72
2021/12/26 04:13:27;;;;;;;0.00;0.00;;;0.50;59.60;;;;;;4993892;28;20049;-72
2021/12/26 04:15:53;;;;;;;0.00;0.00;;;0.40;59.60;;;;;;4993951;28;20030;-72
2021/12/26 04:18:19;;;;;;;0.00;0.00;;;0.30;59.60;;;;;;4994669;28;20034;-72
2021/12/26 04:20:45;;;;;;;0.00;0.00;;;0.30;59.70;;;;;;4993865;28;20434;-72
2021/12/26 04:23:14;;;;;;;0.00;0.00;;;0.20;59.70;;;;;;4976361;28;20411;-71
2021/12/26 04:25:41;;;;;;;0.00;0.00;;;0.10;59.80;;;;;;4993884;28;20109;-72
2021/12/26 04:28:06;;;;;;;0.00;0.00;;;0.10;59.90;;;;;;5003875;28;20030;-73
2021/12/26 04:30:33;;;;;;;0.00;0.00;;;0.10;59.90;;;;;;5013539;28;20053;-71
2021/12/26 04:33:00;;;;;;;0.00;0.00;;;0.00;59.90;;;;;;5013485;28;20022;-71
2021/12/26 04:35:26;;;;;;;0.00;0.00;;;-0.10;60.10;;;;;;5013131;28;20462;-71
2021/12/26 04:37:52;;;;;;;0.00;0.00;;;-0.20;60.10;;;;;;5012579;28;20061;-71
2021/12/26 04:40:18;;;;;;;0.00;0.00;;;-0.20;60.80;;;;;;5013252;28;20041;-72
2021/12/26 04:42:46;;;;;;;0.00;0.00;;;-0.30;60.20;;;;;;5012917;28;20057;-72
2021/12/26 04:45:13;;;;;;;0.13;0.10;;;-0.40;60.30;;;;;;5013324;28;20065;-71
2021/12/26 04:47:39;;;;;;;0.00;0.00;;;-0.40;60.40;;;;;;5006797;28;20026;-71
2021/12/26 04:50:11;;;;;;;0.00;0.00;;;-0.50;60.40;;;;;;4993376;28;20386;-72
2021/12/26 04:52:39;;;;;;;0.00;0.00;;;-0.60;60.50;;;;;;4993779;28;20038;-71
2021/12/26 04:55:06;;;;;;;0.03;0.03;;;-0.60;60.60;;;;;;4993887;28;20045;-71
2021/12/26 04:57:32;;;;;;;0.47;0.00;;;-0.70;60.60;;;;;;4997356;28;20513;-71
2021/12/26 04:59:59;;;;;;;0.00;0.00;;;-0.80;60.70;;;;;;4996726;28;20035;-71
2021/12/26 05:02:25;;;;;;;0.00;0.00;;;-0.80;60.90;;;;;;5000330;28;20034;-71
2021/12/26 05:04:52;;;;;;;0.00;0.00;;;-0.90;61.00;;;;;;5012934;28;20026;-71
2021/12/26 05:07:17;;;;;;;0.00;0.00;;;-1.00;61.00;;;;;;5013096;28;20071;-71
2021/12/26 05:09:45;;;;;;;0.00;0.00;;;-1.00;61.10;;;;;;5013207;28;20058;-72
2021/12/26 05:12:11;;;;;;;0.00;0.00;;;-1.00;61.20;;;;;;5011346;28;20512;-72
2021/12/26 05:14:36;;;;;;;0.00;0.00;;;-1.10;61.30;;;;;;4996219;28;20061;-72
2021/12/26 05:17:02;;;;;;;0.00;0.00;;;-1.20;61.40;;;;;;4995679;28;20477;-73
2021/12/26 05:19:28;;;;;;;0.00;0.00;;;-1.20;61.50;;;;;;4997176;28;20069;-72
2021/12/26 05:21:54;;;;;;;0.00;0.00;;;-1.30;61.60;;;;;;4997377;28;20026;-72
2021/12/26 05:24:20;;;;;;;0.00;0.00;;;-1.30;61.60;;;;;;5016649;28;20133;-71
2021/12/26 05:26:45;;;;;;;0.00;0.00;;;-1.30;61.70;;;;;;5016618;28;20171;-71
2021/12/26 05:29:11;;;;;;;0.28;0.00;;;-1.40;61.80;;;;;;5016797;28;20520;-71
2021/12/26 05:31:37;;;;;;;0.00;0.00;;;-1.40;61.90;;;;;;5016879;28;20025;-71
2021/12/26 05:34:02;;;;;;;0.10;0.10;;;-1.40;61.90;;;;;;4998301;28;20030;-71
2021/12/26 05:36:28;;;;;;;0.00;0.00;;;-1.40;61.90;;;;;;4997015;28;20117;-71
2021/12/26 05:38:57;;;;;;;0.10;0.10;;;-1.50;62.00;;;;;;4996496;28;20036;-71
2021/12/26 05:41:22;;;;;;;0.00;0.00;;;-1.50;62.00;;;;;;4996995;28;20050;-72
2021/12/26 05:43:48;;;;;;;0.00;0.00;;;-1.50;62.00;;;;;;4980795;28;20158;-71
2021/12/26 05:46:20;;;;;;;0.20;0.20;;;-1.50;62.10;;;;;;4977633;28;20058;-71
2021/12/26 05:48:45;;;;;;;0.10;0.10;;;-1.50;62.10;;;;;;4977421;28;20034;-72
2021/12/26 05:51:11;;;;;;;0.10;0.10;;;-1.50;62.10;;;;;;4977277;28;20406;-73
2021/12/26 05:53:37;;;;;;;0.20;0.20;;;-1.50;62.10;;;;;;5005059;28;20028;-72
2021/12/26 05:56:03;;;;;;;0.10;0.10;;;-1.50;62.10;;;;;;5015889;28;20037;-72
2021/12/26 05:58:28;;;;;;;0.10;0.10;;;-1.50;62.20;;;;;;5015984;28;20033;-72
2021/12/26 06:00:54;;;;;;;0.00;0.00;;;-1.60;62.20;;;;;;5016284;28;20079;-72
2021/12/26 06:03:20;;;;;;;0.00;0.00;;;-1.60;62.30;;;;;;5004583;28;20478;-72
2021/12/26 06:05:45;;;;;;;0.00;0.00;;;-1.70;62.40;;;;;;4978607;28;20026;-73
2021/12/26 06:08:11;;;;;;;0.00;0.00;;;-1.70;62.50;;;;;;4996802;28;20034;-72
2021/12/26 06:10:37;;;;;;;0.00;0.00;;;-1.70;62.50;;;;;;4996209;28;20023;-72
2021/12/26 06:13:05;;;;;;;0.00;0.00;;;-1.70;62.60;;;;;;4986998;28;20033;-71
2021/12/26 06:15:30;;;;;;;0.00;0.00;;;-1.70;62.70;;;;;;4998309;28;20128;-72
2021/12/26 06:17:56;;;;;;;0.40;0.10;;;-1.70;62.70;;;;;;5015712;28;20069;-72
2021/12/26 06:20:22;;;;;;;0.15;0.10;;;-1.70;62.80;;;;;;5013699;28;20104;-71
2021/12/26 06:22:47;;;;;;;0.00;0.00;;;-1.70;62.80;;;;;;5006720;28;20060;-71
2021/12/26 06:25:17;;;;;;;0.00;0.00;;;-1.70;62.80;;;;;;4995825;28;20027;-72
2021/12/26 06:27:43;;;;;;;0.03;0.03;;;-1.70;62.80;;;;;;4985186;28;20503;-73
2021/12/26 06:30:10;;;;;;;0.10;0.10;;;-1.70;62.90;;;;;;4980979;28;20022;-73
2021/12/26 06:32:36;;;;;;;0.10;0.00;;;-1.70;62.90;;;;;;4995535;28;20434;-73
2021/12/26 06:35:02;;;;;;;0.20;0.20;;;-1.70;62.90;;;;;;4979018;28;20034;-73
2021/12/26 06:37:29;;;;;;;0.00;0.00;;;-1.60;63.00;;;;;;4996192;28;20030;-72
2021/12/26 06:39:55;;;;;;;0.10;0.10;;;-1.60;63.10;;;;;;4995580;28;20042;-72
2021/12/26 06:42:21;;;;;;;0.10;0.10;;;-1.50;63.10;;;;;;4994529;28;20033;-72
2021/12/26 06:44:47;;;;;;;0.00;0.00;;;-1.50;63.00;;;;;;4994794;28;20030;-72
2021/12/26 06:47:13;;;;;;;0.00;0.00;;;-1.40;63.00;;;;;;4994885;28;20022;-73
2021/12/26 06:49:42;;;;;;;0.00;0.00;;;-1.40;62.90;;;;;;4994748;28;20034;-72
2021/12/26 06:52:09;;;;;;;0.00;0.00;;;-1.40;62.90;;;;;;4994976;28;20038;-73
2021/12/26 06:54:36;;;;;;;0.05;0.05;;;-1.30;63.10;;;;;;4995290;28;20366;-72
2021/12/26 06:57:03;;;;;;;0.10;0.10;;;-1.30;63.10;;;;;;4994996;28;20026;-73
2021/12/26 06:59:31;;;;;;;0.00;0.00;;;-1.20;62.90;;;;;;4995351;28;20121;-73
2021/12/26 07:01:57;;;;;;;0.00;0.00;;;-1.10;63.00;;;;;;4995491;28;20378;-73
2021/12/26 07:04:23;;;;;;;0.00;0.00;;;-1.10;62.90;;;;;;4977875;28;20031;-71
2021/12/26 07:06:49;;;;;;;0.00;0.00;;;-1.00;62.80;;;;;;4995674;28;20034;-73
2021/12/26 07:09:16;;;;;;;0.00;0.00;;;-0.90;62.70;;;;;;4994031;28;20473;-72
2021/12/26 07:11:42;;;;;;;0.00;0.00;;;-0.80;62.60;;;;;;4994696;28;20077;-72
2021/12/26 07:14:08;;;;;;;0.00;0.00;;;-0.80;62.50;;;;;;4994816;28;20034;-73
2021/12/26 07:16:34;;;;;;;0.00;0.00;;;-0.70;62.40;;;;;;4994867;28;20462;-73
2021/12/26 07:19:00;;;;;;;0.00;0.00;;;-0.60;62.40;;;;;;4994925;28;20026;-72
2021/12/26 07:21:26;;;;;;;0.00;0.00;;;-0.50;62.40;;;;;;4994625;28;20460;-72
2021/12/26 07:23:52;;;;;;;0.08;0.08;;;-0.40;62.10;;;;;;4994507;28;20045;-72
2021/12/26 07:26:18;;;;;;;0.00;0.00;;;-0.30;61.90;;;;;;4994623;28;20022;-73
2021/12/26 07:28:43;;;;;;;0.00;0.00;;;-0.20;61.80;;;;;;4994874;28;20054;-72
2021/12/26 07:31:09;;;;;;;0.08;0.00;;;-0.10;61.80;;;;;;4994795;28;20451;-73
2021/12/26 07:33:35;;;;;;;0.00;0.00;;;-0.10;61.50;;;;;;4994857;28;20026;-73
2021/12/26 07:36:02;;;;;;;0.10;0.10;;;0.00;61.20;;;;;;4994552;28;20061;-72
2021/12/26 07:38:28;;;;;;;0.00;0.00;;;0.10;61.20;;;;;;4977311;28;20444;-72
2021/12/26 07:40:54;;;;;;;0.00;0.00;;;0.30;61.20;;;;;;4994470;28;20050;-73
2021/12/26 07:43:20;;;;;;;0.00;0.00;;;0.50;61.20;;;;;;4994712;28;20033;-71
2021/12/26 07:45:45;;;;;;;0.00;0.00;;;0.90;61.20;;;;;;4994625;28;20066;-72
2021/12/26 07:48:11;;;;;;;0.00;0.00;;;1.30;60.70;;;;;;4994149;28;20422;-73
2021/12/26 07:50:37;;;;;;;0.00;0.00;;;1.70;60.70;;;;;;4994191;28;20027;-72
2021/12/26 07:53:08;;;;;;;0.00;0.00;;;2.20;60.60;;;;;;4993775;28;20080;-74
2021/12/26 07:55:34;;;;;;;0.00;0.00;;;2.70;60.30;;;;;;4993744;28;20474;-72
2021/12/26 07:58:00;;;;;;;0.00;0.00;;;3.20;59.60;;;;;;4994245;28;20165;-72
2021/12/26 08:00:26;;;;;;;0.00;0.00;;;3.80;59.30;;;;;;4994498;28;20057;-72
2021/12/26 08:02:52;;;;;;;0.00;0.00;;;4.30;58.10;;;;;;4993980;28;20101;-72
2021/12/26 08:05:18;;;;;;;0.00;0.00;;;4.90;57.30;;;;;;4994085;28;20031;-72
2021/12/26 08:07:44;;;;;;;0.00;0.00;;;5.50;56.90;;;;;;4994104;28;20030;-72
2021/12/26 08:10:10;;;;;;;0.00;0.00;;;6.20;56.50;;;;;;4994354;28;20041;-73
2021/12/26 08:12:36;;;;;;;0.00;0.00;;;6.90;55.30;;;;;;4994106;28;20030;-73
2021/12/26 08:15:02;;;;;;;0.00;0.00;;;7.50;54.00;;;;;;4993880;28;20486;-73
2021/12/26 08:17:29;;;;;;;0.00;0.00;;;8.00;53.20;;;;;;4993979;28;20034;-72
2021/12/26 08:19:56;;;;;;;0.00;0.00;;;8.50;52.10;;;;;;4993541;28;20034;-73
2021/12/26 08:22:22;;;;;;;0.00;0.00;;;9.10;51.50;;;;;;4993915;28;20026;-72
2021/12/26 08:24:48;;;;;;;0.00;0.00;;;9.60;50.60;;;;;;4993575;28;20133;-73
2021/12/26 08:27:14;;;;;;;0.00;0.00;;;10.00;49.40;;;;;;4993065;28;20108;-72
2021/12/26 08:29:41;;;;;;;0.00;0.00;;;10.40;48.20;;;;;;4993472;28;20109;-72
2021/12/26 08:32:11;;;;;;;0.00;0.00;;;10.70;47.00;;;;;;4993383;28;20022;-73
2021/12/26 08:34:36;;;;;;;0.00;0.00;;;11.00;46.80;;;;;;4993149;28;20487;-73
2021/12/26 08:37:03;;;;;;;0.00;0.00;;;11.30;46.00;;;;;;4981461;28;20030;-73
2021/12/26 08:39:32;;;;;;;0.00;0.00;;;11.60;44.90;;;;;;4993703;28;20034;-72
2021/12/26 08:41:59;;;;;;;0.00;0.00;;;11.80;44.50;;;;;;4993512;28;20045;-73
2021/12/26 08:44:24;;;;;;;0.00;0.00;;;11.80;43.20;;;;;;4976509;28;20034;-73
2021/12/26 08:46:53;;;;;;;0.00;0.00;;;11.70;42.50;;;;;;4993772;28;20382;-73
2021/12/26 08:49:19;;;;;;;0.00;0.00;;;11.50;42.00;;;;;;4993629;28;20421;-73
2021/12/26 08:51:46;;;;;;;0.00;0.00;;;11.50;42.10;;;;;;4996080;28;20076;-71
2021/12/26 08:54:12;;;;;;;0.00;0.00;;;11.70;41.80;;;;;;4997729;28;20378;-74
2021/12/26 08:56:39;;;;;;;0.00;0.00;;;11.80;41.20;;;;;;4997197;28;20065;-73
2021/12/26 08:59:06;;;;;;;0.00;0.00;;;11.80;40.90;;;;;;5012881;28;20030;-72
2021/12/26 09:01:31;;;;;;;0.00;0.00;;;12.00;40.70;;;;;;4997511;28;20034;-73
2021/12/26 09:03:57;;;;;;;0.00;0.00;;;12.20;40.40;;;;;;4997848;28;20022;-74
2021/12/26 09:06:23;;;;;;;0.00;0.00;;;12.40;40.20;;;;;;4997680;28;20368;-73
2021/12/26 09:08:49;;;;;;;0.00;0.00;;;12.90;40.10;;;;;;4997477;28;20042;-72
2021/12/26 09:11:16;;;;;;;0.00;0.00;;;13.30;39.70;;;;;;4997021;28;20501;-73
2021/12/26 09:13:42;;;;;;;0.00;0.00;;;13.70;39.20;;;;;;4997407;28;20120;-73
2021/12/26 09:16:08;;;;;;;0.00;0.00;;;14.10;38.80;;;;;;4997125;28;20110;-71
2021/12/26 09:18:34;;;;;;;0.00;0.00;;;14.60;38.20;;;;;;4996557;28;20467;-75
2021/12/26 09:21:00;;;;;;;0.00;0.00;;;15.00;37.50;;;;;;4995546;28;20022;-73
2021/12/26 09:23:26;;;;;;;0.00;0.00;;;15.20;36.80;;;;;;4992171;28;20050;-72
2021/12/26 09:25:52;;;;;;;0.00;0.00;;;15.20;35.80;;;;;;4997027;28;20073;-72
2021/12/26 09:28:17;;;;;;;0.00;0.00;;;15.00;35.10;;;;;;4997161;28;20030;-73
2021/12/26 09:30:43;;;;;;;0.00;0.00;;;15.00;35.50;;;;;;4997084;28;20022;-72
2021/12/26 09:33:09;;;;;;;0.00;0.00;;;15.20;35.40;;;;;;4996971;28;20037;-72
2021/12/26 09:35:35;;;;;;;0.00;0.00;;;15.30;35.60;;;;;;4996971;28;20034;-73
2021/12/26 09:38:01;;;;;;;0.00;0.00;;;15.50;34.80;;;;;;4996739;28;20038;-72
2021/12/26 09:40:27;;;;;;;0.00;0.00;;;15.70;34.90;;;;;;4996670;28;20034;-74
2021/12/26 09:42:53;;;;;;;0.00;0.00;;;16.10;34.60;;;;;;4996810;28;20033;-73
2021/12/26 09:45:19;;;;;;;0.00;0.00;;;16.40;34.30;;;;;;4996289;28;20057;-72
2021/12/26 09:47:50;;;;;;;0.00;0.00;;;16.80;33.50;;;;;;4996643;28;20511;-72
2021/12/26 09:50:18;;;;;;;0.00;0.00;;;17.00;33.00;;;;;;4996580;28;20028;-73
2021/12/26 09:52:46;;;;;;;0.00;0.00;;;17.00;32.40;;;;;;4996275;28;20037;-73
2021/12/26 09:55:13;;;;;;;0.00;0.00;;;17.10;32.50;;;;;;4996536;28;20105;-73
2021/12/26 09:57:39;;;;;;;0.00;0.00;;;17.40;32.60;;;;;;4996525;28;20030;-73
2021/12/26 10:00:19;;;;;;;0.00;0.00;;;17.80;32.30;;;;;;4996763;28;20084;-72
2021/12/26 10:02:45;;;;;;;0.00;0.00;;;18.00;31.60;;;;;;4995932;28;20026;-73
2021/12/26 10:05:11;;;;;;;0.00;0.00;;;18.30;31.60;;;;;;4996354;28;20037;-72
2021/12/26 10:07:36;;;;;;;0.00;0.00;;;18.40;30.80;;;;;;4996010;28;20041;-73
2021/12/26 10:10:07;;;;;;;0.00;0.00;;;18.30;30.60;;;;;;4995960;28;20085;-73
2021/12/26 10:12:40;;;;;;;0.00;0.00;;;18.30;29.90;;;;;;4996493;28;20033;-73
2021/12/26 10:15:07;;;;;;;0.00;0.00;;;18.10;29.90;;;;;;4995106;28;20070;-72
2021/12/26 10:17:33;;;;;;;0.00;0.00;;;18.00;30.20;;;;;;4995935;28;20026;-72
2021/12/26 10:20:09;;;;;;;0.00;0.00;;;18.20;30.30;;;;;;4995844;28;20419;-76
2021/12/26 10:22:36;;;;;;;0.00;0.00;;;18.20;29.90;;;;;;4995917;28;20529;-73
2021/12/26 10:25:14;;;;;;;0.00;0.00;;;18.10;29.90;;;;;;4996111;28;20054;-74
2021/12/26 10:27:41;;;;;;;0.00;0.00;;;17.90;29.70;;;;;;4996077;28;20363;-72
2021/12/26 10:30:12;;;;;;;0.00;0.00;;;18.00;30.10;;;;;;4995671;28;20047;-72
2021/12/26 10:32:38;;;;;;;0.00;0.00;;;17.90;29.70;;;;;;4996193;28;20022;-72
2021/12/26 10:35:18;;;;;;;0.00;0.00;;;17.90;29.70;;;;;;4995737;28;20034;-72
2021/12/26 10:37:49;;;;;;;0.00;0.00;;;18.00;29.80;;;;;;4992746;28;20360;-71
2021/12/26 10:40:22;;;;;;;0.00;0.00;;;18.20;29.60;;;;;;4995461;28;20113;-73
2021/12/26 10:42:51;;;;;;;0.00;0.00;;;18.30;29.30;;;;;;4995552;28;20058;-72
2021/12/26 10:45:20;;;;;;;0.00;0.00;;;18.40;29.10;;;;;;4995379;28;20041;-72
2021/12/26 10:47:51;;;;;;;0.00;0.00;;;18.30;29.00;;;;;;4995405;28;20419;-72
2021/12/26 10:50:20;;;;;;;0.00;0.00;;;18.30;28.90;;;;;;4995561;28;20109;-72
2021/12/26 10:53:06;;;;;;;0.00;0.00;;;18.20;28.80;;;;;;4995218;28;20062;-72
2021/12/26 10:55:40;;;;;;;0.00;0.00;;;18.20;28.70;;;;;;4994948;28;20038;-72
2021/12/26 10:58:07;;;;;;;;;;;18.30;28.60;;;;;;4995320;28;20355;-73
2021/12/26 11:00:37;;;;;;;0.00;0.00;;;18.20;29.30;;;;;;4995049;28;19910;-73
2021/12/26 11:03:09;;;;;;;0.00;0.00;;;18.30;29.20;;;;;;4994844;28;20030;-73
2021/12/26 11:05:43;;;;;;;0.00;0.00;;;18.10;28.90;;;;;;4995099;28;20030;-72
2021/12/26 11:08:13;;;;;;;0.00;0.00;;;17.90;28.80;;;;;;4994778;28;20034;-73
2021/12/26 11:10:44;;;;;;;0.00;0.00;;;17.80;29.00;;;;;;4994722;28;20037;-73
2021/12/26 11:13:22;;;;;;;0.00;0.00;;;17.80;28.70;;;;;;4994192;28;20018;-72
2021/12/26 11:15:49;;;;;;;0.00;0.00;;;17.70;28.70;;;;;;4994241;28;20031;-73
2021/12/26 11:18:18;;;;;;;0.00;0.00;;;17.60;28.60;;;;;;5001840;28;20029;-73
2021/12/26 11:20:48;;;;;;;0.00;0.00;;;17.40;28.70;;;;;;4994937;28;20117;-72
2021/12/26 11:23:17;;;;;;;0.00;0.00;;;17.50;28.90;;;;;;4994699;28;20122;-73
2021/12/26 11:25:52;;;;;;;0.00;0.00;;;17.60;28.80;;;;;;4995149;28;20026;-73
2021/12/26 11:28:22;;;;;;;;;;;17.50;28.70;;;;;;4994600;28;20443;-73
2021/12/26 11:30:48;;;;;;;0.00;0.00;;;17.40;29.20;;;;;;4995379;28;19906;-73
2021/12/26 11:33:14;;;;;;;0.00;0.00;;;17.30;29.00;;;;;;4994653;28;20180;-72
2021/12/26 11:35:41;;;;;;;0.10;0.00;;;17.30;29.00;;;;;;4995060;28;20030;-73
2021/12/26 11:38:16;;;;;;;0.00;0.00;;;17.30;28.70;;;;;;4994352;28;20042;-73
2021/12/26 11:40:42;;;;;;;0.00;0.00;;;17.00;28.50;;;;;;4994271;28;20056;-72
2021/12/26 11:43:37;;;;;;;0.00;0.00;;;16.70;28.70;;;;;;4994438;28;20105;-72
2021/12/26 11:46:31;;;;;;;0.00;0.00;;;16.50;28.90;;;;;;4994507;28;20160;-72
2021/12/26 11:49:21;;;;;;;0.00;0.00;;;16.70;29.20;;;;;;4990508;28;20073;-73
2021/12/26 11:52:13;;;;;;;0.00;0.00;;;17.20;29.20;;;;;;4990668;28;20093;-73
2021/12/26 11:54:48;;;;;;;0.00;0.00;;;17.50;28.90;;;;;;4992937;28;20046;-72
2021/12/26 11:57:41;;;;;;;0.00;0.00;;;17.50;28.50;;;;;;4992804;28;20458;-72
2021/12/26 12:00:14;;;;;;;0.00;0.00;;;17.30;28.40;;;;;;4990852;28;20034;-74
2021/12/26 12:02:52;;;;;;;0.00;0.00;;;17.20;28.60;;;;;;4993467;28;20027;-72
2021/12/26 12:05:27;;;;;;;0.00;0.00;;;17.30;28.40;;;;;;4992428;28;20026;-75
2021/12/26 12:08:12;;;;;;;0.00;0.00;;;17.30;28.30;;;;;;4993673;28;20109;-73
2021/12/26 12:10:41;;;;;;;0.00;0.00;;;17.20;28.40;;;;;;4994110;28;20030;-72
2021/12/26 12:13:28;;;;;;;0.00;0.00;;;17.30;28.40;;;;;;4993962;28;20034;-73
2021/12/26 12:15:58;;;;;;;0.00;0.00;;;17.30;28.30;;;;;;4985930;28;20026;-72
2021/12/26 12:18:27;;;;;;;0.00;0.00;;;17.20;28.40;;;;;;4993418;28;20131;-72
2021/12/26 12:21:09;;;;;;;0.00;0.00;;;17.10;28.40;;;;;;4983341;28;20372;-74
2021/12/26 12:23:59;;;;;;;0.00;0.00;;;16.90;28.20;;;;;;4991327;28;20070;-73
2021/12/26 12:26:57;;;;;;;0.00;0.00;;;16.70;28.40;;;;;;4990782;28;20366;-72
2021/12/26 12:29:28;;;;;;;0.00;0.00;;;16.30;28.50;;;;;;4989641;28;20056;-74
2021/12/26 12:32:06;;;;;;;0.00;0.00;;;15.90;28.60;;;;;;4992656;28;20050;-74
2021/12/26 12:35:05;;;;;;;0.00;0.00;;;15.50;28.70;;;;;;4992633;28;20034;-74
2021/12/26 12:37:39;;;;;;;0.00;0.00;;;15.10;28.80;;;;;;4991253;28;20524;-72
2021/12/26 12:40:08;;;;;;;;;;;14.70;29.00;;;;;;4992946;28;20491;-72
2021/12/26 12:42:37;;;;;;;0.00;0.00;;;14.40;29.40;;;;;;4992981;28;19913;-74
2021/12/26 12:45:04;;;;;;;0.00;0.00;;;14.00;29.60;;;;;;4991920;28;20026;-73
2021/12/26 12:47:30;;;;;;;0.00;0.00;;;13.60;29.80;;;;;;4992215;28;20118;-72
2021/12/26 12:50:02;;;;;;;0.00;0.00;;;13.20;30.00;;;;;;4992911;28;20109;-73
2021/12/26 12:52:40;;;;;;;0.00;0.00;;;12.90;30.20;;;;;;4992552;28;20042;-71
2021/12/26 12:55:11;;;;;;;0.00;0.00;;;12.50;30.40;;;;;;4982485;28;20026;-72
2021/12/26 12:57:41;;;;;;;0.00;0.00;;;12.00;30.70;;;;;;4992211;28;20104;-72
2021/12/26 13:00:27;;;;;;;0.00;0.00;;;11.60;31.10;;;;;;4992339;28;20425;-75
2021/12/26 13:02:57;;;;;;;0.00;0.00;;;11.30;31.30;;;;;;4986226;28;20034;-73